sensor_id;sensor_type;location;lat;lon;timestamp;temperature;humidity
77700;DHT22;66867;42.658;23.320;2023-03-01T00:00:00;8.3;85
77700;DHT22;66867;42.658;23.320;2023-03-01T00:01:02;8.3;85
77700;DHT22;66867;42.658;23.320;2023-03-01T00:02:00;8.2;85
77700;DHT22;66867;42.658;23.320;2023-03-01T00:03:00;8.2;85
77700;DHT22;66867;42.658;23.320;2023-03-01T00:04:00;8.2;85
77700;DHT22;66867;42.658;23.320;2023-03-01T00:05:00;8.2;85
77700;DHT22;66867;42.658;23.320;2023-03-01T00:06:00;8.2;85
77700;DHT22;66867;42.658;23.320;2023-03-01T00:07:00;8.2;86
77700;DHT22;66867;42.658;23.320;2023-03-01T00:08:00;8.2;86
77700;DHT22;66867;42.658;23.320;2023-03-01T00:09:00;8.2;85
77700;DHT22;66867;42.658;23.320;2023-03-01T00:10:00;8.3;85
77700;DHT22;66867;42.658;23.320;2023-03-01T00:11:01;8.3;85
77700;DHT22;66867;42.658;23.320;2023-03-01T00:12:00;8.3;85
77700;DHT22;66867;42.658;23.320;2023-03-01T00:13:00;8.3;84
77700;DHT22;66867;42.658;23.320;2023-03-01T00:14:01;8.2;84
77700;DHT22;66867;42.658;23.320;2023-03-01T00:15:00;8.2;84
77700;DHT22;66867;42.658;23.320;2023-03-01T00:16:02;8.2;84
77700;DHT22;66867;42.658;23.320;2023-03-01T00:17:00;8.2;85
77700;DHT22;66867;42.658;23.320;2023-03-01T00:18:00;8.2;85
77700;DHT22;66867;42.658;23.320;2023-03-01T00:19:00;8.2;85
77700;DHT22;66867;42.658;23.320;2023-03-01T00:20:00;8.2;85
77700;DHT22;66867;42.658;23.320;2023-03-01T00:21:00;8.2;84
77700;DHT22;66867;42.658;23.320;2023-03-01T00:22:00;8.2;84
77700;DHT22;66867;42.658;23.320;2023-03-01T00:23:00;8.2;84
77700;DHT22;66867;42.658;23.320;2023-03-01T00:24:00;8.2;84
77700;DHT22;66867;42.658;23.320;2023-03-01T00:25:00;8.3;84
77700;DHT22;66867;42.658;23.320;2023-03-01T00:26:00;8.3;84
77700;DHT22;66867;42.658;23.320;2023-03-01T00:27:00;8.3;84
77700;DHT22;66867;42.658;23.320;2023-03-01T00:28:00;8.3;84
77700;DHT22;66867;42.658;23.320;2023-03-01T00:29:00;8.3;84
77700;DHT22;66867;42.658;23.320;2023-03-01T00:30:00;8.3;84
77700;DHT22;66867;42.658;23.320;2023-03-01T00:31:04;8.2;84
77700;DHT22;66867;42.658;23.320;2023-03-01T00:32:00;8.2;84
77700;DHT22;66867;42.658;23.320;2023-03-01T00:33:00;8.3;84
77700;DHT22;66867;42.658;23.320;2023-03-01T00:34:01;8.3;84
77700;DHT22;66867;42.658;23.320;2023-03-01T00:35:00;8.3;84
77700;DHT22;66867;42.658;23.320;2023-03-01T00:36:00;8.3;84
77700;DHT22;66867;42.658;23.320;2023-03-01T00:37:00;8.3;84
77700;DHT22;66867;42.658;23.320;2023-03-01T00:38:00;8.3;84
77700;DHT22;66867;42.658;23.320;2023-03-01T00:39:00;8.2;84
77700;DHT22;66867;42.658;23.320;2023-03-01T00:40:00;8.2;84
77700;DHT22;66867;42.658;23.320;2023-03-01T00:41:04;8.2;84
77700;DHT22;66867;42.658;23.320;2023-03-01T00:42:00;8.2;84
77700;DHT22;66867;42.658;23.320;2023-03-01T00:43:00;8.2;84
77700;DHT22;66867;42.658;23.320;2023-03-01T00:44:00;8.2;84
77700;DHT22;66867;42.658;23.320;2023-03-01T00:45:00;8.2;84
77700;DHT22;66867;42.658;23.320;2023-03-01T00:46:00;8.1;85
77700;DHT22;66867;42.658;23.320;2023-03-01T00:47:00;8.1;85
77700;DHT22;66867;42.658;23.320;2023-03-01T00:48:00;8.1;84
77700;DHT22;66867;42.658;23.320;2023-03-01T00:49:00;8.1;85
77700;DHT22;66867;42.658;23.320;2023-03-01T00:50:00;8.1;85
77700;DHT22;66867;42.658;23.320;2023-03-01T00:51:04;8.1;85
77700;DHT22;66867;42.658;23.320;2023-03-01T00:52:00;8.1;85
77700;DHT22;66867;42.658;23.320;2023-03-01T00:53:00;8.1;85
77700;DHT22;66867;42.658;23.320;2023-03-01T00:54:00;8.1;85
77700;DHT22;66867;42.658;23.320;2023-03-01T00:55:00;8.1;85
77700;DHT22;66867;42.658;23.320;2023-03-01T00:56:00;8.1;84
77700;DHT22;66867;42.658;23.320;2023-03-01T00:57:00;8.2;84
77700;DHT22;66867;42.658;23.320;2023-03-01T00:58:00;8.2;84
77700;DHT22;66867;42.658;23.320;2023-03-01T00:59:00;8.1;85
77700;DHT22;66867;42.658;23.320;2023-03-01T01:00:00;8.1;85
77700;DHT22;66867;42.658;23.320;2023-03-01T01:01:00;8.0;85
77700;DHT22;66867;42.658;23.320;2023-03-01T01:02:00;8.0;85
77700;DHT22;66867;42.658;23.320;2023-03-01T01:03:00;8.0;85
77700;DHT22;66867;42.658;23.320;2023-03-01T01:04:01;8.1;85
77700;DHT22;66867;42.658;23.320;2023-03-01T01:05:00;8.0;85
77700;DHT22;66867;42.658;23.320;2023-03-01T01:06:00;8.0;85
77700;DHT22;66867;42.658;23.320;2023-03-01T01:07:00;8.1;85
77700;DHT22;66867;42.658;23.320;2023-03-01T01:08:00;8.0;84
77700;DHT22;66867;42.658;23.320;2023-03-01T01:09:00;8.0;84
77700;DHT22;66867;42.658;23.320;2023-03-01T01:10:00;7.9;85
77700;DHT22;66867;42.658;23.320;2023-03-01T01:11:00;7.9;85
77700;DHT22;66867;42.658;23.320;2023-03-01T01:12:00;7.9;85
77700;DHT22;66867;42.658;23.320;2023-03-01T01:13:00;7.8;85
77700;DHT22;66867;42.658;23.320;2023-03-01T01:14:00;7.9;85
77700;DHT22;66867;42.658;23.320;2023-03-01T01:15:00;7.8;85
77700;DHT22;66867;42.658;23.320;2023-03-01T01:16:01;7.8;86
77700;DHT22;66867;42.658;23.320;2023-03-01T01:17:00;7.8;85
77700;DHT22;66867;42.658;23.320;2023-03-01T01:18:00;7.8;85
77700;DHT22;66867;42.658;23.320;2023-03-01T01:19:00;7.8;86
77700;DHT22;66867;42.658;23.320;2023-03-01T01:20:00;7.8;85
77700;DHT22;66867;42.658;23.320;2023-03-01T01:21:04;7.7;85
77700;DHT22;66867;42.658;23.320;2023-03-01T01:22:00;7.7;86
77700;DHT22;66867;42.658;23.320;2023-03-01T01:23:00;7.7;85
77700;DHT22;66867;42.658;23.320;2023-03-01T01:24:02;7.7;86
77700;DHT22;66867;42.658;23.320;2023-03-01T01:25:00;7.7;86
77700;DHT22;66867;42.658;23.320;2023-03-01T01:26:08;7.7;86
77700;DHT22;66867;42.658;23.320;2023-03-01T01:27:00;7.7;86
77700;DHT22;66867;42.658;23.320;2023-03-01T01:28:00;7.7;86
77700;DHT22;66867;42.658;23.320;2023-03-01T01:29:01;7.7;86
77700;DHT22;66867;42.658;23.320;2023-03-01T01:30:00;7.7;86
77700;DHT22;66867;42.658;23.320;2023-03-01T01:31:00;7.7;86
77700;DHT22;66867;42.658;23.320;2023-03-01T01:32:00;7.7;86
77700;DHT22;66867;42.658;23.320;2023-03-01T01:33:00;7.7;86
77700;DHT22;66867;42.658;23.320;2023-03-01T01:34:01;7.6;86
77700;DHT22;66867;42.658;23.320;2023-03-01T01:35:00;7.7;86
77700;DHT22;66867;42.658;23.320;2023-03-01T01:36:00;7.7;86
77700;DHT22;66867;42.658;23.320;2023-03-01T01:37:00;7.7;86
77700;DHT22;66867;42.658;23.320;2023-03-01T01:38:00;7.7;85
77700;DHT22;66867;42.658;23.320;2023-03-01T01:39:00;7.7;85
77700;DHT22;66867;42.658;23.320;2023-03-01T01:40:00;7.7;85
77700;DHT22;66867;42.658;23.320;2023-03-01T01:41:00;7.7;85
77700;DHT22;66867;42.658;23.320;2023-03-01T01:42:01;7.7;85
77700;DHT22;66867;42.658;23.320;2023-03-01T01:43:00;7.7;85
77700;DHT22;66867;42.658;23.320;2023-03-01T01:44:25;7.7;85
77700;DHT22;66867;42.658;23.320;2023-03-01T01:48:02;7.7;85
77700;DHT22;66867;42.658;23.320;2023-03-01T01:49:02;7.7;84
77700;DHT22;66867;42.658;23.320;2023-03-01T01:50:00;7.6;85
77700;DHT22;66867;42.658;23.320;2023-03-01T01:51:00;7.6;85
77700;DHT22;66867;42.658;23.320;2023-03-01T01:52:03;7.7;84
77700;DHT22;66867;42.658;23.320;2023-03-01T01:53:00;7.7;84
77700;DHT22;66867;42.658;23.320;2023-03-01T01:54:00;7.7;84
77700;DHT22;66867;42.658;23.320;2023-03-01T01:55:16;7.7;84
77700;DHT22;66867;42.658;23.320;2023-03-01T01:56:00;7.7;84
77700;DHT22;66867;42.658;23.320;2023-03-01T01:57:01;7.7;84
77700;DHT22;66867;42.658;23.320;2023-03-01T01:58:02;7.7;85
77700;DHT22;66867;42.658;23.320;2023-03-01T01:59:00;7.7;85
77700;DHT22;66867;42.658;23.320;2023-03-01T02:00:03;7.7;85
77700;DHT22;66867;42.658;23.320;2023-03-01T02:01:00;7.7;84
77700;DHT22;66867;42.658;23.320;2023-03-01T02:02:00;7.7;85
77700;DHT22;66867;42.658;23.320;2023-03-01T02:03:02;7.7;85
77700;DHT22;66867;42.658;23.320;2023-03-01T02:04:00;7.7;84
77700;DHT22;66867;42.658;23.320;2023-03-01T02:05:03;7.8;84
77700;DHT22;66867;42.658;23.320;2023-03-01T02:06:03;7.7;84
77700;DHT22;66867;42.658;23.320;2023-03-01T02:07:03;7.8;84
77700;DHT22;66867;42.658;23.320;2023-03-01T02:08:00;7.8;84
77700;DHT22;66867;42.658;23.320;2023-03-01T02:09:03;7.8;84
77700;DHT22;66867;42.658;23.320;2023-03-01T02:10:00;7.8;84
77700;DHT22;66867;42.658;23.320;2023-03-01T02:11:00;7.8;84
77700;DHT22;66867;42.658;23.320;2023-03-01T02:12:00;7.8;84
77700;DHT22;66867;42.658;23.320;2023-03-01T02:13:00;7.8;84
77700;DHT22;66867;42.658;23.320;2023-03-01T02:14:00;7.9;83
77700;DHT22;66867;42.658;23.320;2023-03-01T02:15:00;7.8;83
77700;DHT22;66867;42.658;23.320;2023-03-01T02:16:04;7.8;83
77700;DHT22;66867;42.658;23.320;2023-03-01T02:17:00;7.8;83
77700;DHT22;66867;42.658;23.320;2023-03-01T02:18:00;7.8;83
77700;DHT22;66867;42.658;23.320;2023-03-01T02:19:00;7.8;83
77700;DHT22;66867;42.658;23.320;2023-03-01T02:21:05;7.8;83
77700;DHT22;66867;42.658;23.320;2023-03-01T02:22:18;7.9;83
77700;DHT22;66867;42.658;23.320;2023-03-01T02:23:00;7.8;83
77700;DHT22;66867;42.658;23.320;2023-03-01T02:24:02;7.9;83
77700;DHT22;66867;42.658;23.320;2023-03-01T02:27:00;7.7;83
77700;DHT22;66867;42.658;23.320;2023-03-01T02:29:00;7.7;84
77700;DHT22;66867;42.658;23.320;2023-03-01T02:30:00;7.6;84
77700;DHT22;66867;42.658;23.320;2023-03-01T02:31:00;7.6;84
77700;DHT22;66867;42.658;23.320;2023-03-01T02:32:00;7.6;84
77700;DHT22;66867;42.658;23.320;2023-03-01T02:33:00;7.6;84
77700;DHT22;66867;42.658;23.320;2023-03-01T02:34:00;7.6;84
77700;DHT22;66867;42.658;23.320;2023-03-01T02:35:00;7.6;84
77700;DHT22;66867;42.658;23.320;2023-03-01T02:36:00;7.6;84
77700;DHT22;66867;42.658;23.320;2023-03-01T02:37:01;7.6;84
77700;DHT22;66867;42.658;23.320;2023-03-01T02:38:00;7.6;84
77700;DHT22;66867;42.658;23.320;2023-03-01T02:39:00;7.6;84
77700;DHT22;66867;42.658;23.320;2023-03-01T02:40:03;7.7;84
77700;DHT22;66867;42.658;23.320;2023-03-01T02:41:00;7.7;84
77700;DHT22;66867;42.658;23.320;2023-03-01T02:42:00;7.7;83
77700;DHT22;66867;42.658;23.320;2023-03-01T02:43:00;7.8;83
77700;DHT22;66867;42.658;23.320;2023-03-01T02:44:00;7.7;83
77700;DHT22;66867;42.658;23.320;2023-03-01T02:45:00;7.7;83
77700;DHT22;66867;42.658;23.320;2023-03-01T02:46:08;7.7;83
77700;DHT22;66867;42.658;23.320;2023-03-01T02:47:00;7.7;83
77700;DHT22;66867;42.658;23.320;2023-03-01T02:48:00;7.8;83
77700;DHT22;66867;42.658;23.320;2023-03-01T02:49:00;7.8;83
77700;DHT22;66867;42.658;23.320;2023-03-01T02:50:00;7.9;83
77700;DHT22;66867;42.658;23.320;2023-03-01T02:53:02;7.9;83
77700;DHT22;66867;42.658;23.320;2023-03-01T02:56:00;7.9;83
77700;DHT22;66867;42.658;23.320;2023-03-01T02:57:00;7.8;83
77700;DHT22;66867;42.658;23.320;2023-03-01T02:58:00;7.9;83
77700;DHT22;66867;42.658;23.320;2023-03-01T02:59:00;7.9;83
77700;DHT22;66867;42.658;23.320;2023-03-01T03:00:03;7.9;83
77700;DHT22;66867;42.658;23.320;2023-03-01T03:01:00;7.9;83
77700;DHT22;66867;42.658;23.320;2023-03-01T03:02:00;7.9;83
77700;DHT22;66867;42.658;23.320;2023-03-01T03:03:00;7.9;83
77700;DHT22;66867;42.658;23.320;2023-03-01T03:04:00;8.0;83
77700;DHT22;66867;42.658;23.320;2023-03-01T03:05:00;8.0;83
77700;DHT22;66867;42.658;23.320;2023-03-01T03:06:00;7.9;83
77700;DHT22;66867;42.658;23.320;2023-03-01T03:07:00;8.0;83
77700;DHT22;66867;42.658;23.320;2023-03-01T03:08:00;8.0;83
77700;DHT22;66867;42.658;23.320;2023-03-01T03:09:00;8.0;83
77700;DHT22;66867;42.658;23.320;2023-03-01T03:10:01;8.0;83
77700;DHT22;66867;42.658;23.320;2023-03-01T03:11:00;8.0;83
77700;DHT22;66867;42.658;23.320;2023-03-01T03:12:00;8.0;83
77700;DHT22;66867;42.658;23.320;2023-03-01T03:13:01;8.0;83
77700;DHT22;66867;42.658;23.320;2023-03-01T03:14:00;8.0;83
77700;DHT22;66867;42.658;23.320;2023-03-01T03:15:00;8.0;83
77700;DHT22;66867;42.658;23.320;2023-03-01T03:16:01;8.0;83
77700;DHT22;66867;42.658;23.320;2023-03-01T03:17:00;7.9;83
77700;DHT22;66867;42.658;23.320;2023-03-01T03:18:00;7.9;83
77700;DHT22;66867;42.658;23.320;2023-03-01T03:19:00;7.9;83
77700;DHT22;66867;42.658;23.320;2023-03-01T03:20:00;7.9;83
77700;DHT22;66867;42.658;23.320;2023-03-01T03:21:00;7.9;83
77700;DHT22;66867;42.658;23.320;2023-03-01T03:22:00;7.9;83
77700;DHT22;66867;42.658;23.320;2023-03-01T03:23:00;7.9;83
77700;DHT22;66867;42.658;23.320;2023-03-01T03:24:00;7.9;83
77700;DHT22;66867;42.658;23.320;2023-03-01T03:25:00;8.0;83
77700;DHT22;66867;42.658;23.320;2023-03-01T03:26:00;8.0;83
77700;DHT22;66867;42.658;23.320;2023-03-01T03:27:00;7.9;83
77700;DHT22;66867;42.658;23.320;2023-03-01T03:28:00;8.0;83
77700;DHT22;66867;42.658;23.320;2023-03-01T03:29:00;8.0;83
77700;DHT22;66867;42.658;23.320;2023-03-01T03:30:00;8.0;83
77700;DHT22;66867;42.658;23.320;2023-03-01T03:31:00;8.0;83
77700;DHT22;66867;42.658;23.320;2023-03-01T03:32:00;8.0;83
77700;DHT22;66867;42.658;23.320;2023-03-01T03:33:00;8.0;83
77700;DHT22;66867;42.658;23.320;2023-03-01T03:34:00;8.1;83
77700;DHT22;66867;42.658;23.320;2023-03-01T03:35:00;8.1;83
77700;DHT22;66867;42.658;23.320;2023-03-01T03:36:00;8.1;83
77700;DHT22;66867;42.658;23.320;2023-03-01T03:37:00;8.0;83
77700;DHT22;66867;42.658;23.320;2023-03-01T03:38:03;8.1;83
77700;DHT22;66867;42.658;23.320;2023-03-01T03:39:00;8.1;83
77700;DHT22;66867;42.658;23.320;2023-03-01T03:40:00;8.0;83
77700;DHT22;66867;42.658;23.320;2023-03-01T03:41:01;8.1;83
77700;DHT22;66867;42.658;23.320;2023-03-01T03:42:00;8.0;83
77700;DHT22;66867;42.658;23.320;2023-03-01T03:43:01;8.0;83
77700;DHT22;66867;42.658;23.320;2023-03-01T03:44:00;8.0;83
77700;DHT22;66867;42.658;23.320;2023-03-01T03:45:00;8.0;83
77700;DHT22;66867;42.658;23.320;2023-03-01T03:46:00;8.0;83
77700;DHT22;66867;42.658;23.320;2023-03-01T03:47:00;8.0;83
77700;DHT22;66867;42.658;23.320;2023-03-01T03:48:00;8.0;83
77700;DHT22;66867;42.658;23.320;2023-03-01T03:49:00;8.1;83
77700;DHT22;66867;42.658;23.320;2023-03-01T03:50:00;8.1;83
77700;DHT22;66867;42.658;23.320;2023-03-01T03:51:00;8.0;83
77700;DHT22;66867;42.658;23.320;2023-03-01T03:52:00;8.0;83
77700;DHT22;66867;42.658;23.320;2023-03-01T03:53:01;7.9;83
77700;DHT22;66867;42.658;23.320;2023-03-01T03:54:00;7.9;83
77700;DHT22;66867;42.658;23.320;2023-03-01T03:55:00;8.0;83
77700;DHT22;66867;42.658;23.320;2023-03-01T03:56:00;8.0;83
77700;DHT22;66867;42.658;23.320;2023-03-01T03:57:00;7.9;83
77700;DHT22;66867;42.658;23.320;2023-03-01T03:58:01;7.8;83
77700;DHT22;66867;42.658;23.320;2023-03-01T03:59:00;7.9;83
77700;DHT22;66867;42.658;23.320;2023-03-01T04:00:00;7.8;83
77700;DHT22;66867;42.658;23.320;2023-03-01T04:01:00;7.8;83
77700;DHT22;66867;42.658;23.320;2023-03-01T04:02:00;7.8;84
77700;DHT22;66867;42.658;23.320;2023-03-01T04:03:00;7.8;83
77700;DHT22;66867;42.658;23.320;2023-03-01T04:04:00;7.8;83
77700;DHT22;66867;42.658;23.320;2023-03-01T04:05:00;7.8;84
77700;DHT22;66867;42.658;23.320;2023-03-01T04:06:00;7.9;83
77700;DHT22;66867;42.658;23.320;2023-03-01T04:07:00;7.9;83
77700;DHT22;66867;42.658;23.320;2023-03-01T04:08:00;7.9;83
77700;DHT22;66867;42.658;23.320;2023-03-01T04:09:00;7.8;83
77700;DHT22;66867;42.658;23.320;2023-03-01T04:10:01;7.8;83
77700;DHT22;66867;42.658;23.320;2023-03-01T04:11:00;7.9;83
77700;DHT22;66867;42.658;23.320;2023-03-01T04:12:00;7.9;83
77700;DHT22;66867;42.658;23.320;2023-03-01T04:13:00;7.9;83
77700;DHT22;66867;42.658;23.320;2023-03-01T04:14:00;7.8;83
77700;DHT22;66867;42.658;23.320;2023-03-01T04:15:00;7.8;83
77700;DHT22;66867;42.658;23.320;2023-03-01T04:16:00;7.8;84
77700;DHT22;66867;42.658;23.320;2023-03-01T04:17:00;7.8;84
77700;DHT22;66867;42.658;23.320;2023-03-01T04:18:00;7.8;84
77700;DHT22;66867;42.658;23.320;2023-03-01T04:19:00;7.8;83
77700;DHT22;66867;42.658;23.320;2023-03-01T04:20:00;7.8;83
77700;DHT22;66867;42.658;23.320;2023-03-01T04:21:00;7.8;83
77700;DHT22;66867;42.658;23.320;2023-03-01T04:22:00;7.8;83
77700;DHT22;66867;42.658;23.320;2023-03-01T04:23:02;7.8;83
77700;DHT22;66867;42.658;23.320;2023-03-01T04:24:00;7.8;83
77700;DHT22;66867;42.658;23.320;2023-03-01T04:25:00;7.8;83
77700;DHT22;66867;42.658;23.320;2023-03-01T04:26:00;7.8;83
77700;DHT22;66867;42.658;23.320;2023-03-01T04:27:00;7.8;83
77700;DHT22;66867;42.658;23.320;2023-03-01T04:28:00;7.8;83
77700;DHT22;66867;42.658;23.320;2023-03-01T04:29:00;7.7;84
77700;DHT22;66867;42.658;23.320;2023-03-01T04:30:00;7.7;84
77700;DHT22;66867;42.658;23.320;2023-03-01T04:31:02;7.7;84
77700;DHT22;66867;42.658;23.320;2023-03-01T04:32:00;7.7;84
77700;DHT22;66867;42.658;23.320;2023-03-01T04:33:00;7.7;84
77700;DHT22;66867;42.658;23.320;2023-03-01T04:34:00;7.7;84
77700;DHT22;66867;42.658;23.320;2023-03-01T04:35:00;7.7;84
77700;DHT22;66867;42.658;23.320;2023-03-01T04:36:00;7.7;83
77700;DHT22;66867;42.658;23.320;2023-03-01T04:37:00;7.7;83
77700;DHT22;66867;42.658;23.320;2023-03-01T04:38:00;7.7;83
77700;DHT22;66867;42.658;23.320;2023-03-01T04:39:00;7.7;83
77700;DHT22;66867;42.658;23.320;2023-03-01T04:40:01;7.7;83
77700;DHT22;66867;42.658;23.320;2023-03-01T04:41:00;7.7;84
77700;DHT22;66867;42.658;23.320;2023-03-01T04:42:00;7.7;84
77700;DHT22;66867;42.658;23.320;2023-03-01T04:43:00;7.7;84
77700;DHT22;66867;42.658;23.320;2023-03-01T04:44:00;7.7;84
77700;DHT22;66867;42.658;23.320;2023-03-01T04:45:00;7.7;83
77700;DHT22;66867;42.658;23.320;2023-03-01T04:46:01;7.7;84
77700;DHT22;66867;42.658;23.320;2023-03-01T04:47:00;7.6;84
77700;DHT22;66867;42.658;23.320;2023-03-01T04:48:00;7.7;84
77700;DHT22;66867;42.658;23.320;2023-03-01T04:49:00;7.7;84
77700;DHT22;66867;42.658;23.320;2023-03-01T04:50:00;7.7;84
77700;DHT22;66867;42.658;23.320;2023-03-01T04:52:00;7.7;84
77700;DHT22;66867;42.658;23.320;2023-03-01T04:53:00;7.7;84
77700;DHT22;66867;42.658;23.320;2023-03-01T04:54:00;7.7;84
77700;DHT22;66867;42.658;23.320;2023-03-01T04:55:00;7.7;84
77700;DHT22;66867;42.658;23.320;2023-03-01T04:56:00;7.7;84
77700;DHT22;66867;42.658;23.320;2023-03-01T04:57:00;7.8;83
77700;DHT22;66867;42.658;23.320;2023-03-01T04:58:00;7.8;83
77700;DHT22;66867;42.658;23.320;2023-03-01T04:59:00;7.8;83
77700;DHT22;66867;42.658;23.320;2023-03-01T05:00:00;7.7;83
77700;DHT22;66867;42.658;23.320;2023-03-01T05:01:00;7.7;83
77700;DHT22;66867;42.658;23.320;2023-03-01T05:02:00;7.7;84
77700;DHT22;66867;42.658;23.320;2023-03-01T05:03:00;7.7;84
77700;DHT22;66867;42.658;23.320;2023-03-01T05:04:00;7.7;84
77700;DHT22;66867;42.658;23.320;2023-03-01T05:05:00;7.7;84
77700;DHT22;66867;42.658;23.320;2023-03-01T05:06:00;7.7;83
77700;DHT22;66867;42.658;23.320;2023-03-01T05:07:00;7.7;83
77700;DHT22;66867;42.658;23.320;2023-03-01T05:08:01;7.6;84
77700;DHT22;66867;42.658;23.320;2023-03-01T05:09:00;7.6;84
77700;DHT22;66867;42.658;23.320;2023-03-01T05:10:00;7.7;83
77700;DHT22;66867;42.658;23.320;2023-03-01T05:11:00;7.7;83
77700;DHT22;66867;42.658;23.320;2023-03-01T05:12:00;7.7;83
77700;DHT22;66867;42.658;23.320;2023-03-01T05:13:00;7.7;83
77700;DHT22;66867;42.658;23.320;2023-03-01T05:14:00;7.7;83
77700;DHT22;66867;42.658;23.320;2023-03-01T05:15:00;7.7;83
77700;DHT22;66867;42.658;23.320;2023-03-01T05:16:01;7.7;83
77700;DHT22;66867;42.658;23.320;2023-03-01T05:17:00;7.7;84
77700;DHT22;66867;42.658;23.320;2023-03-01T05:18:00;7.7;84
77700;DHT22;66867;42.658;23.320;2023-03-01T05:19:00;7.8;83
77700;DHT22;66867;42.658;23.320;2023-03-01T05:20:00;7.7;83
77700;DHT22;66867;42.658;23.320;2023-03-01T05:21:02;7.7;84
77700;DHT22;66867;42.658;23.320;2023-03-01T05:22:00;7.7;84
77700;DHT22;66867;42.658;23.320;2023-03-01T05:23:00;7.8;84
77700;DHT22;66867;42.658;23.320;2023-03-01T05:24:00;7.8;84
77700;DHT22;66867;42.658;23.320;2023-03-01T05:29:00;7.8;84
77700;DHT22;66867;42.658;23.320;2023-03-01T05:30:00;7.8;84
77700;DHT22;66867;42.658;23.320;2023-03-01T05:31:00;7.8;84
77700;DHT22;66867;42.658;23.320;2023-03-01T05:32:01;7.8;84
77700;DHT22;66867;42.658;23.320;2023-03-01T05:33:00;7.8;84
77700;DHT22;66867;42.658;23.320;2023-03-01T05:34:00;7.8;83
77700;DHT22;66867;42.658;23.320;2023-03-01T05:35:00;7.8;83
77700;DHT22;66867;42.658;23.320;2023-03-01T05:36:00;7.8;84
77700;DHT22;66867;42.658;23.320;2023-03-01T05:37:00;7.8;84
77700;DHT22;66867;42.658;23.320;2023-03-01T05:38:00;7.8;84
77700;DHT22;66867;42.658;23.320;2023-03-01T05:39:00;7.8;84
77700;DHT22;66867;42.658;23.320;2023-03-01T05:40:00;7.8;84
77700;DHT22;66867;42.658;23.320;2023-03-01T05:41:00;7.8;83
77700;DHT22;66867;42.658;23.320;2023-03-01T05:42:00;7.8;83
77700;DHT22;66867;42.658;23.320;2023-03-01T05:43:00;7.8;83
77700;DHT22;66867;42.658;23.320;2023-03-01T05:44:00;7.8;83
77700;DHT22;66867;42.658;23.320;2023-03-01T05:45:00;7.8;84
77700;DHT22;66867;42.658;23.320;2023-03-01T05:46:00;7.7;84
77700;DHT22;66867;42.658;23.320;2023-03-01T05:47:00;7.7;84
77700;DHT22;66867;42.658;23.320;2023-03-01T05:48:00;7.7;84
77700;DHT22;66867;42.658;23.320;2023-03-01T05:49:00;7.7;84
77700;DHT22;66867;42.658;23.320;2023-03-01T05:50:00;7.6;84
77700;DHT22;66867;42.658;23.320;2023-03-01T05:51:00;7.6;85
77700;DHT22;66867;42.658;23.320;2023-03-01T05:52:00;7.6;85
77700;DHT22;66867;42.658;23.320;2023-03-01T05:54:00;7.6;85
77700;DHT22;66867;42.658;23.320;2023-03-01T05:55:00;7.6;85
77700;DHT22;66867;42.658;23.320;2023-03-01T05:56:02;7.6;85
77700;DHT22;66867;42.658;23.320;2023-03-01T05:57:00;7.5;85
77700;DHT22;66867;42.658;23.320;2023-03-01T05:58:02;7.5;84
77700;DHT22;66867;42.658;23.320;2023-03-01T05:59:00;7.5;84
77700;DHT22;66867;42.658;23.320;2023-03-01T06:00:00;7.6;84
77700;DHT22;66867;42.658;23.320;2023-03-01T06:01:00;7.6;85
77700;DHT22;66867;42.658;23.320;2023-03-01T06:02:00;7.6;84
77700;DHT22;66867;42.658;23.320;2023-03-01T06:03:00;7.7;84
77700;DHT22;66867;42.658;23.320;2023-03-01T06:04:00;7.7;84
77700;DHT22;66867;42.658;23.320;2023-03-01T06:05:00;7.7;84
77700;DHT22;66867;42.658;23.320;2023-03-01T06:06:00;7.6;84
77700;DHT22;66867;42.658;23.320;2023-03-01T06:07:00;7.6;84
77700;DHT22;66867;42.658;23.320;2023-03-01T06:08:00;7.6;85
77700;DHT22;66867;42.658;23.320;2023-03-01T06:09:00;7.6;84
77700;DHT22;66867;42.658;23.320;2023-03-01T06:10:00;7.7;84
77700;DHT22;66867;42.658;23.320;2023-03-01T06:11:00;7.6;84
77700;DHT22;66867;42.658;23.320;2023-03-01T06:12:00;7.5;84
77700;DHT22;66867;42.658;23.320;2023-03-01T06:13:00;7.5;84
77700;DHT22;66867;42.658;23.320;2023-03-01T06:14:00;7.5;85
77700;DHT22;66867;42.658;23.320;2023-03-01T06:15:00;7.5;85
77700;DHT22;66867;42.658;23.320;2023-03-01T06:16:00;7.6;84
77700;DHT22;66867;42.658;23.320;2023-03-01T06:17:00;7.6;84
77700;DHT22;66867;42.658;23.320;2023-03-01T06:18:00;7.5;84
77700;DHT22;66867;42.658;23.320;2023-03-01T06:19:00;7.5;85
77700;DHT22;66867;42.658;23.320;2023-03-01T06:20:00;7.5;85
77700;DHT22;66867;42.658;23.320;2023-03-01T06:21:00;7.5;85
77700;DHT22;66867;42.658;23.320;2023-03-01T06:22:00;7.4;85
77700;DHT22;66867;42.658;23.320;2023-03-01T06:23:00;7.5;85
77700;DHT22;66867;42.658;23.320;2023-03-01T06:24:00;7.5;85
77700;DHT22;66867;42.658;23.320;2023-03-01T06:25:00;7.6;85
77700;DHT22;66867;42.658;23.320;2023-03-01T06:27:00;7.6;85
77700;DHT22;66867;42.658;23.320;2023-03-01T06:28:00;7.6;85
77700;DHT22;66867;42.658;23.320;2023-03-01T06:29:00;7.6;85
77700;DHT22;66867;42.658;23.320;2023-03-01T06:30:00;7.6;85
77700;DHT22;66867;42.658;23.320;2023-03-01T06:31:00;7.6;85
77700;DHT22;66867;42.658;23.320;2023-03-01T06:32:00;7.6;85
77700;DHT22;66867;42.658;23.320;2023-03-01T06:33:00;7.7;85
77700;DHT22;66867;42.658;23.320;2023-03-01T06:34:01;7.6;85
77700;DHT22;66867;42.658;23.320;2023-03-01T06:35:00;7.6;85
77700;DHT22;66867;42.658;23.320;2023-03-01T06:36:00;7.7;85
77700;DHT22;66867;42.658;23.320;2023-03-01T06:38:01;7.7;85
77700;DHT22;66867;42.658;23.320;2023-03-01T06:40:00;7.7;84
77700;DHT22;66867;42.658;23.320;2023-03-01T06:41:00;7.7;85
77700;DHT22;66867;42.658;23.320;2023-03-01T06:42:00;7.7;84
77700;DHT22;66867;42.658;23.320;2023-03-01T06:43:00;7.7;84
77700;DHT22;66867;42.658;23.320;2023-03-01T06:44:00;7.7;85
77700;DHT22;66867;42.658;23.320;2023-03-01T06:45:00;7.8;84
77700;DHT22;66867;42.658;23.320;2023-03-01T06:46:02;7.8;85
77700;DHT22;66867;42.658;23.320;2023-03-01T06:47:00;7.8;84
77700;DHT22;66867;42.658;23.320;2023-03-01T06:48:03;7.8;84
77700;DHT22;66867;42.658;23.320;2023-03-01T06:49:00;7.8;84
77700;DHT22;66867;42.658;23.320;2023-03-01T06:50:00;7.8;84
77700;DHT22;66867;42.658;23.320;2023-03-01T06:51:00;7.8;84
77700;DHT22;66867;42.658;23.320;2023-03-01T06:52:00;7.8;84
77700;DHT22;66867;42.658;23.320;2023-03-01T06:53:00;7.8;84
77700;DHT22;66867;42.658;23.320;2023-03-01T06:54:00;7.7;84
77700;DHT22;66867;42.658;23.320;2023-03-01T06:55:00;7.7;85
77700;DHT22;66867;42.658;23.320;2023-03-01T06:56:00;7.7;84
77700;DHT22;66867;42.658;23.320;2023-03-01T06:57:00;7.7;84
77700;DHT22;66867;42.658;23.320;2023-03-01T06:58:00;7.6;85
77700;DHT22;66867;42.658;23.320;2023-03-01T06:59:00;7.6;85
77700;DHT22;66867;42.658;23.320;2023-03-01T07:00:00;7.7;84
77700;DHT22;66867;42.658;23.320;2023-03-01T07:01:00;7.7;84
77700;DHT22;66867;42.658;23.320;2023-03-01T07:02:00;7.7;84
77700;DHT22;66867;42.658;23.320;2023-03-01T07:03:00;7.6;84
77700;DHT22;66867;42.658;23.320;2023-03-01T07:04:00;7.7;84